Time;durP1;ratioP1;P1;durP2;ratioP2;P2;SDS_P1;SDS_P2;PMS_P1;PMS_P2;Temp;Humidity;BMP_temperature;BMP_pressure;BME280_temperature;BME280_humidity;BME280_pressure;Samples;Min_cycle;Max_cycle;Signal;HPM_P1;HPM_P2
2022/03/15 00:00:45;;;;;;;28.37;15.00;;;;;;;-1.81;100.00;101057.41;1564631;91;21145;-68
2022/03/15 00:03:12;;;;;;;30.43;17.13;;;;;;;-1.82;100.00;101062.34;1607603;89;21081;-68
2022/03/15 00:05:39;;;;;;;32.83;16.60;;;;;;;-1.85;100.00;101061.98;1596733;88;21101;-68
2022/03/15 00:08:07;;;;;;;30.00;16.20;;;;;;;-1.91;100.00;101055.16;1606515;88;21075;-67
2022/03/15 00:10:36;;;;;;;31.93;16.47;;;;;;;-1.92;100.00;101053.91;1645565;86;21028;-67
2022/03/15 00:13:06;;;;;;;30.47;16.53;;;;;;;-1.94;100.00;101047.81;1646814;86;21135;-68
2022/03/15 00:15:34;;;;;;;32.20;17.30;;;;;;;-1.94;100.00;101046.02;1634354;84;21099;-68
2022/03/15 00:18:04;;;;;;;29.63;17.30;;;;;;;-1.94;100.00;101037.20;1706789;84;21562;-67
2022/03/15 00:20:32;;;;;;;29.00;16.17;;;;;;;-1.92;100.00;101046.80;1706659;84;21061;-67
2022/03/15 00:23:00;;;;;;;29.73;17.30;;;;;;;-1.88;100.00;101041.38;1706614;84;21024;-67
2022/03/15 00:25:27;;;;;;;32.67;18.60;;;;;;;-1.85;100.00;101026.67;1706913;84;21045;-68
2022/03/15 00:27:55;;;;;;;31.90;16.83;;;;;;;-1.83;100.00;101028.31;1706810;84;21569;-68
2022/03/15 00:30:23;;;;;;;32.93;17.33;;;;;;;-1.79;100.00;101025.06;1706612;84;21057;-67
2022/03/15 00:32:52;;;;;;;34.33;17.53;;;;;;;-1.76;100.00;101016.97;1680620;84;21557;-68
2022/03/15 00:35:20;;;;;;;30.90;17.03;;;;;;;-1.73;100.00;101019.02;1680503;84;21084;-68
2022/03/15 00:37:54;;;;;;;32.60;17.53;;;;;;;-1.69;100.00;101013.12;1706799;84;21045;-67
2022/03/15 00:40:24;;;;;;;32.77;18.07;;;;;;;-1.66;100.00;101020.95;1706831;84;21580;-67
2022/03/15 00:42:51;;;;;;;28.83;16.53;;;;;;;-1.63;100.00;101022.58;1706730;84;21006;-67
2022/03/15 00:45:30;;;;;;;32.67;16.70;;;;;;;-1.59;100.00;101017.56;1706582;84;21065;-67
2022/03/15 00:47:59;;;;;;;29.07;16.37;;;;;;;-1.55;100.00;101019.13;1706769;84;21056;-69
2022/03/15 00:52:57;;;;;;;30.63;16.60;;;;;;;-1.57;100.00;101012.56;1654351;87;21543;-68
2022/03/15 00:55:24;;;;;;;27.63;15.73;;;;;;;-1.54;100.00;101010.22;1654217;85;21215;-67
2022/03/15 00:57:51;;;;;;;28.43;15.97;;;;;;;-1.49;100.00;101014.01;1654220;87;21148;-66
2022/03/15 01:00:20;;;;;;;28.17;15.37;;;;;;;-1.47;100.00;101017.45;1654427;87;21077;-67
2022/03/15 01:02:49;;;;;;;29.47;15.30;;;;;;;-1.48;100.00;101010.44;1654325;87;21586;-67
2022/03/15 01:05:16;;;;;;;26.87;14.83;;;;;;;-1.46;100.00;101003.27;1654461;87;21030;-69
2022/03/15 01:07:44;;;;;;;29.43;15.10;;;;;;;-1.46;100.00;101007.24;1654425;87;21539;-67
2022/03/15 01:10:11;;;;;;;27.00;15.10;;;;;;;-1.46;100.00;101005.91;1662208;85;21075;-68
2022/03/15 01:12:41;;;;;;;26.73;14.77;;;;;;;-1.48;100.00;101007.78;1658158;86;21090;-65
2022/03/15 01:15:10;;;;;;;27.20;14.27;;;;;;;-1.49;100.00;101010.03;1654941;87;21058;-68
2022/03/15 01:17:37;;;;;;;27.03;14.37;;;;;;;-1.53;100.00;101006.18;1622064;87;21535;-68
2022/03/15 01:20:07;;;;;;;25.47;14.00;;;;;;;-1.58;100.00;101004.67;1619574;89;21190;-67
2022/03/15 01:22:37;;;;;;;25.55;14.53;;;;;;;-1.60;100.00;101006.06;1620137;89;21584;-67
2022/03/15 01:25:08;;;;;;;28.60;15.33;;;;;;;-1.61;100.00;101006.13;1619784;89;21054;-67
2022/03/15 01:27:37;;;;;;;30.17;15.00;;;;;;;-1.65;100.00;101005.88;1619914;89;21054;-68
2022/03/15 01:30:08;;;;;;;29.30;14.87;;;;;;;-1.67;100.00;101003.77;1619469;89;21111;-68
2022/03/15 01:32:35;;;;;;;28.53;15.43;;;;;;;-1.70;100.00;100999.45;1619623;89;21038;-68
2022/03/15 01:35:05;;;;;;;33.13;16.43;;;;;;;-1.72;100.00;100999.55;1619522;89;21630;-67
2022/03/15 01:37:32;;;;;;;29.10;16.17;;;;;;;-1.74;100.00;101002.70;1619894;89;21546;-68
2022/03/15 01:40:01;;;;;;;31.43;16.77;;;;;;;-1.75;100.00;101001.47;1619611;89;21157;-67
2022/03/15 01:42:29;;;;;;;28.30;15.07;;;;;;;-1.76;100.00;101004.56;1619778;89;21134;-67
2022/03/15 01:44:56;;;;;;;29.53;16.30;;;;;;;-1.75;100.00;101006.78;1619581;89;21559;-68
2022/03/15 01:47:25;;;;;;;29.20;15.27;;;;;;;-1.78;100.00;101002.93;1619679;89;21098;-67
2022/03/15 01:49:52;;;;;;;33.80;16.87;;;;;;;-1.82;100.00;101002.20;1642752;86;21075;-68
2022/03/15 01:52:19;;;;;;;31.67;17.33;;;;;;;-1.86;100.00;101001.95;1661405;86;21076;-68
2022/03/15 01:54:47;;;;;;;30.50;16.93;;;;;;;-1.88;100.00;101002.46;1661608;86;21040;-67
2022/03/15 01:57:15;;;;;;;35.70;18.20;;;;;;;-1.88;100.00;101005.11;1661371;86;21102;-67
2022/03/15 01:59:44;;;;;;;29.83;16.57;;;;;;;-1.86;100.00;100998.42;1661410;86;21576;-68
2022/03/15 02:02:12;;;;;;;33.07;17.07;;;;;;;-1.84;100.00;100997.88;1661265;86;21096;-68
2022/03/15 02:04:41;;;;;;;35.77;19.47;;;;;;;-1.87;100.00;100995.39;1661425;86;21071;-68
2022/03/15 02:07:15;;;;;;;34.33;19.07;;;;;;;-1.88;100.00;100993.66;1661406;86;21007;-67
2022/03/15 02:09:44;;;;;;;37.67;18.80;;;;;;;-1.86;100.00;100996.66;1661379;86;21087;-69
2022/03/15 02:12:13;;;;;;;32.10;18.60;;;;;;;-1.85;100.00;100991.73;1699746;84;21039;-69
2022/03/15 02:14:42;;;;;;;37.73;20.83;;;;;;;-1.88;100.00;100994.51;1693457;85;21575;-68
2022/03/15 02:17:09;;;;;;;37.30;18.43;;;;;;;-1.93;100.00;100999.15;1693598;85;21064;-68
2022/03/15 02:19:37;;;;;;;34.53;18.40;;;;;;;-1.93;100.00;101003.13;1660036;86;21064;-68
2022/03/15 02:22:06;;;;;;;37.97;19.30;;;;;;;-1.94;100.00;101003.59;1693695;85;21056;-67
2022/03/15 02:24:34;;;;;;;36.13;18.63;;;;;;;-1.95;100.00;100994.38;1693797;85;21035;-68
2022/03/15 02:27:03;;;;;;;36.50;19.43;;;;;;;-1.96;100.00;100998.83;1693758;85;21067;-68
2022/03/15 02:29:31;;;;;;;33.37;19.63;;;;;;;-1.98;100.00;100994.06;1660307;86;21068;-67
2022/03/15 02:31:58;;;;;;;33.57;18.30;;;;;;;-1.97;100.00;100995.77;1644119;85;21071;-68
2022/03/15 02:34:26;;;;;;;35.10;18.43;;;;;;;-1.95;100.00;100990.41;1660182;86;21068;-68
2022/03/15 02:36:54;;;;;;;37.87;19.63;;;;;;;-1.96;100.00;100992.68;1693646;85;21082;-67
2022/03/15 02:39:21;;;;;;;35.33;19.33;;;;;;;-1.96;100.00;100988.23;1633638;86;21052;-68
2022/03/15 02:41:50;;;;;;;35.07;18.80;;;;;;;-1.90;100.00;100988.42;1660086;86;21045;-68
2022/03/15 02:44:19;;;;;;;36.57;20.10;;;;;;;-1.87;100.00;100983.46;1693826;85;21047;-67
2022/03/15 02:46:50;;;;;;;35.87;19.27;;;;;;;-1.85;100.00;100985.58;1634152;86;21129;-68
2022/03/15 02:49:18;;;;;;;33.03;19.47;;;;;;;-1.80;100.00;100989.73;1693643;85;21071;-67
2022/03/15 02:51:45;;;;;;;36.60;18.97;;;;;;;-1.75;100.00;100989.06;1660330;86;21036;-68
2022/03/15 02:54:13;;;;;;;30.03;18.00;;;;;;;-1.69;100.00;100985.75;1660038;86;21084;-68
2022/03/15 02:56:43;;;;;;;33.30;18.10;;;;;;;-1.68;100.00;100983.03;1689393;85;21059;-69
2022/03/15 02:59:12;;;;;;;38.00;16.87;;;;;;;-1.68;100.00;100978.17;1666184;85;21086;-68
2022/03/15 03:01:39;;;;;;;31.23;16.43;;;;;;;-1.66;100.00;100986.94;1696623;84;21544;-67
2022/03/15 03:04:07;;;;;;;28.33;15.63;;;;;;;-1.65;100.00;100979.36;1660609;86;21075;-67
2022/03/15 03:06:35;;;;;;;27.63;15.60;;;;;;;-1.65;100.00;100982.02;1660217;86;21099;-68
2022/03/15 03:09:02;;;;;;;26.07;14.97;;;;;;;-1.64;100.00;100973.99;1666021;85;21138;-67
2022/03/15 03:11:30;;;;;;;27.17;14.43;;;;;;;-1.63;100.00;100975.73;1660247;86;21095;-70
2022/03/15 03:13:58;;;;;;;28.37;14.13;;;;;;;-1.63;100.00;100977.05;1692282;85;21532;-67
2022/03/15 03:16:26;;;;;;;27.30;13.70;;;;;;;-1.62;100.00;100968.15;1677068;85;21056;-67
2022/03/15 03:18:57;;;;;;;25.33;13.70;;;;;;;-1.56;100.00;100969.20;1658446;86;21576;-68
2022/03/15 03:21:25;;;;;;;26.73;13.80;;;;;;;-1.52;100.00;100967.27;1632132;86;21012;-69
2022/03/15 03:23:53;;;;;;;25.70;13.20;;;;;;;-1.51;100.00;100964.14;1658424;86;21557;-68
2022/03/15 03:26:23;;;;;;;24.27;13.03;;;;;;;-1.49;100.00;100964.93;1658527;86;21092;-68
2022/03/15 03:28:52;;;;;;;25.77;13.50;;;;;;;-1.47;100.00;100963.06;1617680;89;21060;-68
2022/03/15 03:31:20;;;;;;;24.43;13.40;;;;;;;-1.46;100.00;100961.67;1649036;87;21108;-67
2022/03/15 03:33:49;;;;;;;25.00;13.03;;;;;;;-1.46;100.00;100964.32;1649006;86;21076;-68
2022/03/15 03:36:17;;;;;;;24.20;13.17;;;;;;;-1.45;100.00;100962.52;1649234;86;21116;-68
2022/03/15 03:38:44;;;;;;;23.73;12.70;;;;;;;-1.47;100.00;100969.69;1648970;87;21141;-67
2022/03/15 03:41:11;;;;;;;23.17;12.50;;;;;;;-1.48;100.00;100965.34;1649237;87;21076;-68
2022/03/15 03:43:40;;;;;;;23.30;12.77;;;;;;;-1.50;100.00;100974.69;1617507;89;21080;-68
2022/03/15 03:46:07;;;;;;;22.97;12.80;;;;;;;-1.48;100.00;100961.36;1649200;87;21526;-68
2022/03/15 03:48:35;;;;;;;25.23;12.90;;;;;;;-1.49;100.00;100965.78;1649261;87;21112;-67
2022/03/15 03:51:03;;;;;;;22.53;12.40;;;;;;;-1.49;100.00;100967.59;1617406;89;21115;-69
2022/03/15 03:53:31;;;;;;;23.17;12.00;;;;;;;-1.51;100.00;100972.11;1625032;87;21112;-67
2022/03/15 03:55:58;;;;;;;24.57;12.57;;;;;;;-1.51;100.00;100965.47;1617512;88;21084;-68
2022/03/15 03:58:25;;;;;;;22.30;12.70;;;;;;;-1.53;100.00;100969.52;1618501;87;21541;-67
2022/03/15 04:00:52;;;;;;;20.67;11.23;;;;;;;-1.54;100.00;100973.97;1669068;86;21597;-67
2022/03/15 04:03:19;;;;;;;21.00;11.70;;;;;;;-1.54;100.00;100973.97;1649085;87;21537;-67
2022/03/15 04:05:46;;;;;;;23.13;12.40;;;;;;;-1.52;100.00;100968.60;1617609;88;21067;-67
2022/03/15 04:08:16;;;;;;;22.40;11.20;;;;;;;-1.51;100.00;100967.65;1624836;87;21604;-67
2022/03/15 04:10:46;;;;;;;24.20;12.23;;;;;;;-1.48;100.00;100966.19;1617613;88;21068;-68
2022/03/15 04:13:16;;;;;;;20.53;11.30;;;;;;;-1.48;100.00;100961.36;1649014;86;21557;-68
2022/03/15 04:15:46;;;;;;;22.83;11.47;;;;;;;-1.46;100.00;100968.77;1654056;85;21584;-68
2022/03/15 04:18:15;;;;;;;21.87;11.50;;;;;;;-1.44;100.00;100960.27;1624750;88;21110;-68
2022/03/15 04:20:42;;;;;;;23.67;11.87;;;;;;;-1.44;100.00;100962.45;1624632;88;21046;-68
2022/03/15 04:23:11;;;;;;;22.43;11.73;;;;;;;-1.41;100.00;100958.34;1624706;88;21586;-68
2022/03/15 04:25:38;;;;;;;24.13;12.03;;;;;;;-1.37;100.00;100953.75;1595522;86;21554;-68
2022/03/15 04:28:06;;;;;;;22.37;11.97;;;;;;;-1.37;100.00;100957.73;1624823;88;21011;-68
2022/03/15 04:30:34;;;;;;;22.03;12.13;;;;;;;-1.37;100.00;100957.25;1624807;88;22263;-68
2022/03/15 04:33:01;;;;;;;24.33;12.27;;;;;;;-1.34;100.00;100962.89;1624901;88;21602;-67
2022/03/15 04:35:29;;;;;;;25.13;12.97;;;;;;;-1.31;100.00;100964.09;1624831;88;21535;-67
2022/03/15 04:37:57;;;;;;;23.10;12.13;;;;;;;-1.28;100.00;100961.74;1624772;88;21476;-67
2022/03/15 04:40:24;;;;;;;22.00;11.33;;;;;;;-1.26;100.00;100966.03;1624837;88;21068;-67
2022/03/15 04:42:54;;;;;;;19.63;11.10;;;;;;;-1.23;100.00;100963.23;1624604;88;21066;-68
2022/03/15 04:45:22;;;;;;;22.13;12.40;;;;;;;-1.20;100.00;100964.42;1625021;88;22273;-67
2022/03/15 04:47:49;;;;;;;21.43;11.10;;;;;;;-1.15;100.00;100961.09;1624860;88;21050;-68
2022/03/15 04:50:17;;;;;;;23.10;11.53;;;;;;;-1.13;100.00;100954.39;1626134;88;20987;-67
2022/03/15 04:52:44;;;;;;;23.37;11.87;;;;;;;-1.09;100.00;100956.42;1625528;88;21118;-67
2022/03/15 04:55:11;;;;;;;20.60;11.10;;;;;;;-1.06;100.00;100950.94;1624760;88;21575;-68
2022/03/15 04:57:38;;;;;;;18.43;10.20;;;;;;;-1.01;100.00;100947.60;1624699;88;21054;-67
2022/03/15 05:00:09;;;;;;;21.03;11.47;;;;;;;-0.97;100.00;100951.38;1624794;88;21074;-68
2022/03/15 05:02:39;;;;;;;22.63;11.17;;;;;;;-0.91;100.00;100948.87;1624885;88;21066;-67
2022/03/15 05:05:07;;;;;;;20.70;10.77;;;;;;;-0.85;100.00;100946.38;1624966;88;21007;-68
2022/03/15 05:07:36;;;;;;;21.37;11.33;;;;;;;-0.78;100.00;100950.45;1624748;88;21113;-69
2022/03/15 05:12:57;;;;;;;21.20;11.10;;;;;;;-0.65;100.00;100951.58;1623461;88;21102;-68
2022/03/15 05:15:24;;;;;;;20.13;10.90;;;;;;;-0.56;100.00;100954.72;1663818;85;21537;-69
2022/03/15 05:17:51;;;;;;;23.73;10.53;;;;;;;-0.49;100.00;100949.48;1634601;87;21117;-68
2022/03/15 05:20:19;;;;;;;20.97;11.57;;;;;;;-0.42;100.00;100954.88;1618996;89;21112;-67
2022/03/15 05:22:47;;;;;;;21.03;11.17;;;;;;;-0.36;100.00;100951.89;1591981;89;21084;-67
2022/03/15 05:25:14;;;;;;;21.37;11.63;;;;;;;-0.27;100.00;100963.37;1619110;89;21099;-68
2022/03/15 05:27:42;;;;;;;20.53;11.37;;;;;;;-0.18;100.00;100964.70;1600379;89;21584;-68
2022/03/15 05:30:11;;;;;;;20.87;11.20;;;;;;;-0.10;100.00;100960.33;1600057;89;21111;-67
2022/03/15 05:32:38;;;;;;;22.67;11.43;;;;;;;-0.04;100.00;100967.97;1599907;89;21060;-66
2022/03/15 05:35:06;;;;;;;21.00;11.27;;;;;;;0.05;100.00;100973.28;1599993;89;21587;-66
2022/03/15 05:37:35;;;;;;;20.87;11.33;;;;;;;0.10;100.00;100969.91;1619154;88;21084;-66
2022/03/15 05:40:04;;;;;;;21.47;11.03;;;;;;;0.16;100.00;100970.45;1619207;89;21044;-66
2022/03/15 05:42:32;;;;;;;18.50;10.37;;;;;;;0.23;100.00;100961.68;1619003;88;21080;-67
2022/03/15 05:45:05;;;;;;;20.90;10.97;;;;;;;0.30;100.00;100971.05;1599718;89;21120;-66
2022/03/15 05:47:34;;;;;;;22.53;11.77;;;;;;;0.38;100.00;100979.45;1619052;89;21059;-66
2022/03/15 05:50:05;;;;;;;19.43;11.27;;;;;;;0.48;100.00;100975.84;1600611;89;21537;-66
2022/03/15 05:52:32;;;;;;;21.53;12.13;;;;;;;0.60;100.00;100981.42;1619056;89;21131;-67
2022/03/15 05:55:01;;;;;;;23.70;13.03;;;;;;;0.69;100.00;100985.78;1619165;89;21028;-66
2022/03/15 05:57:29;;;;;;;29.93;20.70;;;;;;;0.78;100.00;100985.75;1618976;88;21068;-67
2022/03/15 05:59:57;;;;;;;21.63;12.60;;;;;;;0.83;100.00;100985.48;1599893;89;21079;-67
2022/03/15 06:02:24;;;;;;;23.20;13.90;;;;;;;0.84;100.00;100992.53;1619058;88;21525;-67
2022/03/15 06:04:51;;;;;;;19.87;11.67;;;;;;;0.83;100.00;100997.45;1600069;89;21585;-66
2022/03/15 06:07:19;;;;;;;20.27;12.30;;;;;;;0.80;100.00;101005.61;1619079;89;21556;-68
2022/03/15 06:09:49;;;;;;;19.87;11.13;;;;;;;0.78;100.00;101000.84;1618852;87;21079;-66
2022/03/15 06:12:18;;;;;;;19.20;10.83;;;;;;;0.82;100.00;101004.59;1619381;88;21083;-67
2022/03/15 06:14:46;;;;;;;20.37;10.70;;;;;;;0.87;100.00;101004.36;1612045;89;21060;-67
2022/03/15 06:17:13;;;;;;;20.37;11.00;;;;;;;0.92;100.00;101001.81;1702192;83;21038;-67
2022/03/15 06:19:42;;;;;;;25.67;14.13;;;;;;;0.98;100.00;101003.27;1718012;83;21031;-69
2022/03/15 06:22:11;;;;;;;22.60;12.83;;;;;;;1.06;100.00;101005.05;1718027;83;21042;-69
2022/03/15 06:24:39;;;;;;;24.17;13.77;;;;;;;1.12;100.00;101003.35;1718583;83;21022;-68
2022/03/15 06:27:08;;;;;;;22.40;11.93;;;;;;;1.18;100.00;101010.61;1718231;83;21050;-66
2022/03/15 06:29:35;;;;;;;21.10;11.53;;;;;;;1.22;100.00;101012.15;1718029;83;21066;-68
2022/03/15 06:32:03;;;;;;;22.77;12.00;;;;;;;1.28;100.00;101003.82;1689542;83;21058;-68
2022/03/15 06:34:30;;;;;;;20.50;10.60;;;;;;;1.36;100.00;101012.70;1689754;83;21022;-68
2022/03/15 06:36:58;;;;;;;24.10;12.60;;;;;;;1.42;100.00;101009.70;1717889;83;21054;-68
2022/03/15 06:39:25;;;;;;;21.73;12.17;;;;;;;1.49;100.00;101003.06;1720959;83;21043;-67
2022/03/15 06:41:52;;;;;;;23.90;12.60;;;;;;;1.58;100.00;101007.00;1717927;83;21203;-68
2022/03/15 06:44:20;;;;;;;21.90;12.13;;;;;;;1.67;100.00;101001.12;1689365;83;21530;-68
2022/03/15 06:46:47;;;;;;;22.90;12.03;;;;;;;1.85;100.00;100996.50;1689593;83;21093;-68
2022/03/15 06:49:14;;;;;;;20.53;11.13;;;;;;;2.06;100.00;101005.88;1689005;83;21050;-68
2022/03/15 06:51:41;;;;;;;21.13;11.00;;;;;;;2.25;100.00;101006.11;1688691;83;21514;-70
2022/03/15 06:54:08;;;;;;;21.60;11.63;;;;;;;2.38;100.00;101007.54;1717728;83;21031;-68
2022/03/15 06:56:35;;;;;;;20.87;11.13;;;;;;;2.52;100.00;101018.70;1717606;83;20999;-69
2022/03/15 06:59:04;;;;;;;20.57;10.80;;;;;;;2.59;100.00;101020.89;1688560;83;21129;-68
2022/03/15 07:01:31;;;;;;;22.50;10.83;;;;;;;2.70;100.00;101024.22;1689735;83;21530;-68
2022/03/15 07:03:58;;;;;;;18.77;10.07;;;;;;;2.78;100.00;101030.40;1689522;83;21074;-69
2022/03/15 07:06:25;;;;;;;21.63;11.13;;;;;;;2.87;100.00;101032.52;1717913;83;21550;-69
2022/03/15 07:08:52;;;;;;;20.90;10.40;;;;;;;2.96;100.00;101033.27;1689216;83;21018;-69
2022/03/15 07:11:19;;;;;;;20.23;10.63;;;;;;;3.02;100.00;101044.03;1717954;83;21559;-68
2022/03/15 07:13:46;;;;;;;21.23;11.47;;;;;;;3.04;100.00;101046.13;1686533;84;21101;-68
2022/03/15 07:16:14;;;;;;;23.73;12.17;;;;;;;3.09;100.00;101049.36;1683557;84;21097;-69
2022/03/15 07:18:41;;;;;;;26.87;14.07;;;;;;;3.21;100.00;101055.25;1654615;85;21536;-68
2022/03/15 07:21:10;;;;;;;36.30;20.53;;;;;;;3.29;100.00;101054.75;1665999;84;21693;-68
2022/03/15 07:23:37;;;;;;;28.40;16.67;;;;;;;3.37;100.00;101062.30;1680446;85;20995;-68
2022/03/15 07:26:04;;;;;;;28.20;15.47;;;;;;;3.56;100.00;101069.49;1684099;85;21504;-68
2022/03/15 07:28:32;;;;;;;27.73;13.30;;;;;;;3.76;100.00;101072.18;1683469;85;21170;-66
2022/03/15 07:31:00;;;;;;;25.07;13.90;;;;;;;3.90;100.00;101073.09;1652657;86;21070;-68
2022/03/15 07:33:27;;;;;;;28.30;16.57;;;;;;;4.01;100.00;101073.22;1672996;86;21061;-68
2022/03/15 07:35:54;;;;;;;30.30;18.77;;;;;;;4.16;100.00;101082.02;1653375;86;21587;-68
2022/03/15 07:38:22;;;;;;;35.07;22.87;;;;;;;4.32;100.00;101081.83;1653580;86;21093;-68
2022/03/15 07:40:52;;;;;;;20.20;11.40;;;;;;;4.49;100.00;101083.35;1654629;86;21109;-71
2022/03/15 07:43:23;;;;;;;25.27;14.70;;;;;;;4.61;100.00;101095.05;1654796;86;21125;-70
2022/03/15 07:45:50;;;;;;;50.80;25.67;;;;;;;4.57;100.00;101094.41;1673966;85;21026;-68
2022/03/15 07:48:17;;;;;;;44.47;23.73;;;;;;;4.60;100.00;101094.66;1674158;86;21090;-68
2022/03/15 07:50:44;;;;;;;44.10;24.00;;;;;;;4.64;100.00;101094.81;1654581;86;21077;-69
2022/03/15 07:53:12;;;;;;;47.07;26.20;;;;;;;4.65;100.00;101107.26;1673979;86;21010;-68
2022/03/15 07:55:39;;;;;;;51.77;37.70;;;;;;;4.65;100.00;101106.77;1673339;86;21570;-70
2022/03/15 07:58:06;;;;;;;26.03;16.43;;;;;;;4.81;100.00;101106.55;1656320;85;21074;-67
2022/03/15 08:00:34;;;;;;;27.00;15.87;;;;;;;5.09;100.00;101101.44;1684607;84;21570;-67
2022/03/15 08:03:05;;;;;;;25.43;14.20;;;;;;;5.34;100.00;101110.40;1682041;84;21061;-68
2022/03/15 08:05:32;;;;;;;23.63;14.30;;;;;;;5.56;100.00;101107.02;1682664;85;21586;-68
2022/03/15 08:07:59;;;;;;;22.33;12.40;;;;;;;5.67;100.00;101099.52;1684422;84;21070;-66
2022/03/15 08:10:27;;;;;;;34.77;18.57;;;;;;;5.75;100.00;101105.66;1683557;85;21042;-65
2022/03/15 08:12:54;;;;;;;30.63;16.43;;;;;;;5.69;100.00;101105.13;1681979;85;21059;-67
2022/03/15 08:15:23;;;;;;;24.07;13.77;;;;;;;5.70;100.00;101110.88;1660337;83;21577;-68
2022/03/15 08:17:52;;;;;;;24.57;13.57;;;;;;;5.81;100.00;101114.61;1717901;83;21003;-67
2022/03/15 08:20:20;;;;;;;27.30;14.27;;;;;;;5.84;100.00;101115.23;1717575;83;21054;-67
2022/03/15 08:22:47;;;;;;;30.27;16.57;;;;;;;5.94;100.00;101114.55;1688980;83;21081;-66
2022/03/15 08:25:16;;;;;;;34.00;19.47;;;;;;;6.06;100.00;101119.02;1716522;83;21097;-67
2022/03/15 08:27:43;;;;;;;34.93;20.03;;;;;;;6.21;100.00;101113.81;1719652;83;21030;-66
2022/03/15 08:30:12;;;;;;;28.73;18.77;;;;;;;6.34;100.00;101112.42;1718483;83;21014;-67
2022/03/15 08:32:41;;;;;;;29.53;18.93;;;;;;;6.40;100.00;101118.64;1689353;83;21010;-66
2022/03/15 08:35:09;;;;;;;28.57;15.10;;;;;;;6.49;100.00;101111.71;1673528;84;21580;-66
2022/03/15 08:37:36;;;;;;;25.23;14.17;;;;;;;6.52;100.00;101106.11;1627139;86;21071;-64
2022/03/15 08:40:06;;;;;;;32.43;15.03;;;;;;;6.56;100.00;101112.95;1671683;86;21212;-65
2022/03/15 08:42:35;;;;;;;39.13;20.43;;;;;;;6.73;100.00;101117.48;1672237;86;21599;-67
2022/03/15 08:45:02;;;;;;;27.97;15.03;;;;;;;6.68;100.00;101115.18;1649494;86;21110;-66
2022/03/15 08:47:29;;;;;;;24.60;14.97;;;;;;;6.78;100.00;101107.23;1644934;86;21045;-67
2022/03/15 08:50:04;;;;;;;21.10;11.37;;;;;;;7.01;100.00;101113.02;1664549;86;21127;-67
2022/03/15 08:52:32;;;;;;;29.67;16.50;;;;;;;7.34;100.00;101108.59;1665782;86;21532;-66
2022/03/15 08:54:59;;;;;;;26.47;16.93;;;;;;;7.43;100.00;101115.56;1665345;86;21047;-68
2022/03/15 08:57:26;;;;;;;25.23;14.57;;;;;;;7.44;100.00;101115.91;1620239;86;21111;-67
2022/03/15 08:59:54;;;;;;;28.97;17.20;;;;;;;7.48;100.00;101117.39;1672116;85;21126;-67
2022/03/15 09:02:21;;;;;;;25.47;12.93;;;;;;;7.61;100.00;101112.70;1666631;85;21083;-67
2022/03/15 09:04:48;;;;;;;24.73;14.57;;;;;;;7.70;100.00;101096.28;1673369;85;21067;-68
2022/03/15 09:07:16;;;;;;;22.77;13.30;;;;;;;7.68;100.00;101098.25;1646438;87;21076;-66
2022/03/15 09:09:43;;;;;;;19.33;10.10;;;;;;;7.79;100.00;101098.21;1646871;86;21548;-66
2022/03/15 09:12:11;;;;;;;32.70;18.63;;;;;;;7.83;100.00;101088.92;1646754;86;21596;-67
2022/03/15 09:14:38;;;;;;;17.97;10.30;;;;;;;7.93;100.00;101090.34;1646960;87;21594;-67
2022/03/15 09:17:06;;;;;;;24.10;12.30;;;;;;;8.06;100.00;101096.42;1626673;86;21087;-66
2022/03/15 09:19:35;;;;;;;26.63;13.07;;;;;;;8.03;100.00;101099.36;1618908;88;21119;-70
2022/03/15 09:22:04;;;;;;;22.37;10.70;;;;;;;8.11;100.00;101096.89;1659960;86;21076;-67
2022/03/15 09:24:33;;;;;;;24.13;13.40;;;;;;;8.23;100.00;101103.06;1660356;86;21071;-66
2022/03/15 09:27:01;;;;;;;22.37;11.85;;;;;;;8.26;100.00;101108.20;1659875;85;21071;-67
2022/03/15 09:29:28;;;;;;;22.37;12.37;;;;;;;8.42;100.00;101106.44;1660053;85;21553;-69
2022/03/15 09:31:57;;;;;;;28.70;18.15;;;;;;;8.64;100.00;101109.97;1663552;86;21054;-66
2022/03/15 09:34:27;;;;;;;23.52;14.75;;;;;;;8.86;100.00;101116.58;1673907;84;21125;-67
2022/03/15 09:36:55;;;;;;;26.70;14.87;;;;;;;8.98;100.00;101121.87;1674265;85;21507;-66
2022/03/15 09:39:23;;;;;;;38.80;19.45;;;;;;;9.17;100.00;101119.77;1674027;86;21046;-67
2022/03/15 09:41:53;;;;;;;21.30;11.60;;;;;;;9.44;100.00;101115.97;1674070;85;21026;-67
2022/03/15 09:44:21;;;;;;;22.05;12.07;;;;;;;9.55;100.00;101112.30;1665260;85;21050;-66
2022/03/15 09:46:51;;;;;;;92.00;73.20;;;;;;;9.71;100.00;101108.23;1638266;86;21568;-70
2022/03/15 09:49:22;;;;;;;25.27;13.65;;;;;;;10.03;100.00;101111.52;1684409;85;22166;-67
2022/03/15 09:51:56;;;;;;;22.17;11.80;;;;;;;10.03;100.00;101102.06;1559898;92;21079;-71
2022/03/15 09:54:27;;;;;;;20.72;11.08;;;;;;;10.15;100.00;101110.05;1561023;91;21095;-69
2022/03/15 09:56:56;;;;;;;18.25;9.98;;;;;;;10.30;100.00;101108.60;1560914;90;21147;-70
2022/03/15 09:59:24;;;;;;;20.00;10.60;;;;;;;10.21;100.00;101108.95;1559581;92;21114;-70
2022/03/15 10:01:59;;;;;;;19.82;9.60;;;;;;;10.11;100.00;101109.95;1563977;92;21311;-70
2022/03/15 10:04:27;;;;;;;17.75;9.80;;;;;;;10.07;100.00;101110.73;1562435;91;21060;-70
2022/03/15 10:06:54;;;;;;;21.50;11.80;;;;;;;10.06;100.00;101103.64;1569634;90;21090;-69
2022/03/15 10:09:22;;;;;;;24.47;13.35;;;;;;;10.21;100.00;101106.25;1557380;92;21152;-69
2022/03/15 10:11:50;;;;;;;21.10;12.20;;;;;;;10.20;100.00;101107.27;1572139;90;21083;-69
2022/03/15 10:14:19;;;;;;;26.12;14.15;;;;;;;10.00;100.00;101100.98;1550748;92;21583;-71
2022/03/15 10:16:49;;;;;;;20.92;12.70;;;;;;;9.96;100.00;101105.48;1557506;90;21068;-70
2022/03/15 10:19:17;;;;;;;16.52;9.68;;;;;;;9.88;100.00;101102.14;1557604;92;21096;-70
2022/03/15 10:21:50;;;;;;;16.42;8.50;;;;;;;9.81;100.00;101096.91;1549689;92;21117;-69
2022/03/15 10:24:22;;;;;;;16.95;9.00;;;;;;;9.71;100.00;101099.62;1555984;92;21013;-71
2022/03/15 10:26:52;;;;;;;20.10;10.23;;;;;;;9.52;100.00;101104.47;1497300;95;21536;-66
2022/03/15 10:29:20;;;;;;;20.52;10.18;;;;;;;9.60;100.00;101088.95;1515481;93;21074;-68
2022/03/15 10:31:53;;;;;;;20.10;8.70;;;;;;;9.83;100.00;101094.45;1515173;95;21056;-69
2022/03/15 10:34:22;;;;;;;21.77;12.13;;;;;;;9.79;100.00;101105.19;1515211;95;21083;-70
2022/03/15 10:36:53;;;;;;;18.85;8.98;;;;;;;9.53;100.00;101112.10;1515413;95;21633;-71
2022/03/15 10:39:20;;;;;;;19.07;8.83;;;;;;;9.50;100.00;101100.55;1515361;95;21224;-71
2022/03/15 10:42:08;;;;;;;19.87;9.33;;;;;;;9.64;100.00;101099.31;1515413;95;21677;-69
2022/03/15 10:44:37;;;;;;;24.02;11.60;;;;;;;9.72;100.00;101097.77;1515321;95;21158;-69
2022/03/15 10:47:10;;;;;;;26.82;13.80;;;;;;;9.42;100.00;101106.28;1515141;95;21202;-68
2022/03/15 10:49:55;;;;;;;31.23;15.78;;;;;;;9.19;100.00;101102.47;1532409;93;21112;-69
2022/03/15 10:52:40;;;;;;;71.22;34.00;;;;;;;8.88;100.00;101103.80;1534975;93;21105;-69
2022/03/15 10:55:15;;;;;;;;;;;;;;;8.68;100.00;101098.80;1550420;92;21118;-72
2022/03/15 10:58:05;;;;;;;21.73;8.80;;;;;;;8.69;100.00;101103.23;1562293;91;20106;-70
2022/03/15 11:00:38;;;;;;;19.07;8.40;;;;;;;8.69;100.00;101101.87;1542244;92;21089;-71
2022/03/15 11:05:41;;;;;;;14.43;7.67;;;;;;;8.55;100.00;101101.72;1548352;92;21615;-70
2022/03/15 11:08:11;;;;;;;12.63;7.50;;;;;;;8.63;100.00;101095.65;1547609;92;21631;-71
2022/03/15 11:10:41;;;;;;;16.07;8.30;;;;;;;8.67;100.00;101098.94;1548202;93;21021;-71
2022/03/15 11:15:42;;;;;;;25.85;10.15;;;;;;;8.84;100.00;101100.17;1532441;92;21179;-72
2022/03/15 11:18:12;;;;;;;21.55;11.50;;;;;;;8.80;100.00;101105.45;1455548;96;21145;-74
2022/03/15 11:20:45;;;;;;;18.95;9.28;;;;;;;8.46;100.00;101102.98;1455546;99;21120;-70
2022/03/15 11:23:14;;;;;;;17.20;8.63;;;;;;;8.23;100.00;101104.41;1469204;96;21296;-70